PABE/BET METAR and TAF weather

Enter ICAO airport designator
Station Type Date Time Source
PABE METAR 2022/12/08 12:53 UTC NOAA

PABE 081253Z 30007KT 10SM FEW038 M09/M11 A2989 RMK AO2 SLP126 T10941106


Station Type Date Time Source
PABE Decoded METAR 2022/12/08 12:53 UTC NOAA

BETHEL AIRPORT, AK, United States (PABE) 60-47N 161-50W 46M
Dec 08, 2022 - 07:53 AM EST / 2022.12.08 1253 UTC
Wind: from the WNW (300 degrees) at 8 MPH (7 KT):0
Visibility: 10 mile(s):0
Sky conditions: mostly clear
Temperature: 15.1 F (-9.4 C)
Windchill: 5 F (-15 C):1
Dew Point: 12.9 F (-10.6 C)
Relative Humidity: 90%
Pressure (altimeter): 29.89 in. Hg (1012 hPa)
ob: PABE 081253Z 30007KT 10SM FEW038 M09/M11 A2989 RMK AO2 SLP126 T10941106
cycle: 13

Station Type Date Time Source
PABE TAF 2022/12/08 12:34 UTC NOAA

TAF PABE 081132Z 0812/0912 VRB06KT P6SM FEW020 BKN040
FM090300 21007KT P6SM BKN025 OVC050
FM091000 22006KT P6SM VCFG FEW001 BKN040

Example: see airport list